Terminal Aerodrome Forecast
Issued by NWS Brownsville, TX

Home | Current Version | Previous Version | Text Only | Print | Product List | Glossary On
Versions: 1 2 3 4 5 6 7 8 9 10 11 12 13 14 15 16 17 18 19 20 21 22 23 24 25 26 27 28 29 30 31 32 33 34 35 36 37 38 39 40 41 42 43 44 45 46 47 48 49 50
000
FTUS44 KBRO 101943 AAA
TAFHRL
TAF AMD
KHRL 101943Z 1020/1118 34018G26KT 3SM -DZ BR BKN008 OVC011
     FM102100 35022G31KT P6SM -DZ OVC012
     FM110000 35021KT P6SM BKN015
     FM110900 34013KT P6SM BKN022
     FM111600 34012KT P6SM BKN060=

USA.gov is the U.S. government's official web portal to all federal, state and local government web resources and services.